Time;durP1;ratioP1;P1;durP2;ratioP2;P2;SDS_P1;SDS_P2;PMS_P1;PMS_P2;Temp;Humidity;BMP_temperature;BMP_pressure;BME280_temperature;BME280_humidity;BME280_pressure;Samples;Min_cycle;Max_cycle;Signal;HPM_P1;HPM_P2
2023/03/18 00:01:06;;;;;;;52.97;32.92;;;4.20;99.90;;;;;;5075023;28;20181;-80
2023/03/18 00:03:33;;;;;;;49.47;30.13;;;4.20;99.90;;;;;;5075933;28;20621;-74
2023/03/18 00:06:19;;;;;;;50.33;30.50;;;4.10;99.90;;;;;;5076298;28;20225;-80
2023/03/18 00:08:46;;;;;;;51.13;29.92;;;4.00;99.90;;;;;;5074717;28;20229;-80
2023/03/18 00:11:15;;;;;;;41.38;27.70;;;3.90;99.90;;;;;;5074829;28;20196;-74
2023/03/18 00:13:41;;;;;;;50.65;30.77;;;3.90;99.90;;;;;;5074448;28;20677;-75
2023/03/18 00:16:10;;;;;;;43.35;28.42;;;4.00;99.90;;;;;;5076036;28;20221;-80
2023/03/18 00:18:36;;;;;;;42.03;29.92;;;4.10;99.90;;;;;;5075695;28;20279;-74
2023/03/18 00:21:03;;;;;;;46.38;29.63;;;4.20;99.90;;;;;;5075683;28;20177;-80
2023/03/18 00:23:29;;;;;;;46.33;29.95;;;4.20;99.90;;;;;;5074396;28;20614;-80
2023/03/18 00:25:56;;;;;;;47.65;30.80;;;4.10;99.90;;;;;;5074525;28;20634;-74
2023/03/18 00:28:23;;;;;;;42.25;26.73;;;4.10;99.90;;;;;;5075046;28;20193;-80
2023/03/18 00:30:50;;;;;;;42.42;26.85;;;4.10;99.90;;;;;;5075760;28;20260;-80
2023/03/18 00:33:17;;;;;;;42.70;26.83;;;4.10;99.90;;;;;;5075481;28;20203;-74
2023/03/18 00:35:44;;;;;;;44.22;28.95;;;4.00;99.90;;;;;;5074226;28;20793;-80
2023/03/18 00:38:14;;;;;;;44.72;26.60;;;3.90;99.90;;;;;;5074181;28;20205;-80
2023/03/18 00:40:52;;;;;;;43.63;26.45;;;3.90;99.90;;;;;;5074321;28;20216;-75
2023/03/18 00:43:28;;;;;;;41.00;26.77;;;3.90;99.90;;;;;;5074014;28;20204;-80
2023/03/18 00:45:55;;;;;;;46.15;27.40;;;4.00;99.90;;;;;;5073937;28;20185;-80
2023/03/18 00:48:22;;;;;;;43.38;28.02;;;4.00;99.90;;;;;;5073845;28;20319;-80
2023/03/18 00:50:48;;;;;;;43.60;27.17;;;3.90;99.90;;;;;;5073886;28;20590;-74
2023/03/18 00:53:14;;;;;;;40.67;26.92;;;3.90;99.90;;;;;;5075059;28;20193;-80
2023/03/18 00:55:40;;;;;;;36.30;24.90;;;3.90;99.90;;;;;;5073785;28;20617;-75
2023/03/18 00:58:07;;;;;;;36.92;26.02;;;3.80;99.90;;;;;;5073740;28;20201;-80
2023/03/18 01:00:34;;;;;;;41.40;24.83;;;3.80;99.90;;;;;;5073780;28;20177;-80
2023/03/18 01:03:00;;;;;;;41.65;26.00;;;3.70;99.90;;;;;;5074898;28;20196;-80
2023/03/18 01:05:26;;;;;;;34.33;22.83;;;3.70;99.90;;;;;;5074905;28;20604;-75
2023/03/18 01:07:52;;;;;;;39.88;24.27;;;3.70;99.90;;;;;;5074729;28;20453;-74
2023/03/18 01:10:18;;;;;;;36.93;24.40;;;3.50;99.90;;;;;;5073550;28;20193;-80
2023/03/18 01:12:47;;;;;;;35.60;23.48;;;3.50;99.90;;;;;;5073348;28;20433;-80
2023/03/18 01:15:16;;;;;;;32.45;22.70;;;3.60;99.90;;;;;;5074488;28;20241;-80
2023/03/18 01:17:43;;;;;;;34.80;24.60;;;3.60;99.90;;;;;;5074563;28;20249;-80
2023/03/18 01:20:11;;;;;;;40.63;22.52;;;3.60;99.90;;;;;;5074588;28;20177;-74
2023/03/18 01:22:40;;;;;;;33.00;21.60;;;3.50;99.90;;;;;;5074494;28;20222;-78
2023/03/18 01:25:07;;;;;;;37.25;23.42;;;3.50;99.90;;;;;;5073258;28;20590;-74
2023/03/18 01:27:33;;;;;;;36.60;23.33;;;3.50;99.90;;;;;;5074395;28;20193;-74
2023/03/18 01:29:59;;;;;;;37.50;23.80;;;3.50;99.90;;;;;;5074324;28;20177;-74
2023/03/18 01:32:25;;;;;;;35.03;22.10;;;3.50;99.90;;;;;;5074268;28;20464;-80
2023/03/18 01:34:51;;;;;;;35.40;22.63;;;3.50;99.90;;;;;;5074119;28;20204;-75
2023/03/18 01:37:18;;;;;;;34.53;23.30;;;3.50;99.90;;;;;;5074211;28;20434;-80
2023/03/18 01:39:44;;;;;;;36.80;23.80;;;3.60;99.90;;;;;;5072183;28;20259;-74
2023/03/18 01:42:10;;;;;;;36.78;22.15;;;3.70;99.90;;;;;;5074549;28;20280;-80
2023/03/18 01:44:36;;;;;;;37.10;24.00;;;3.60;99.90;;;;;;5072864;28;20646;-75
2023/03/18 01:47:03;;;;;;;36.92;24.35;;;3.40;99.90;;;;;;5074550;28;20205;-74
2023/03/18 01:49:39;;;;;;;39.47;23.40;;;3.30;99.90;;;;;;5073137;28;20189;-75
2023/03/18 01:52:35;;;;;;;35.05;22.20;;;3.40;99.90;;;;;;5074583;28;20220;-74
2023/03/18 01:55:05;;;;;;;38.22;23.67;;;3.30;99.90;;;;;;5073574;28;20217;-74
2023/03/18 01:57:33;;;;;;;34.33;22.35;;;3.30;99.90;;;;;;5073987;28;20189;-81
2023/03/18 02:00:00;;;;;;;35.22;23.50;;;3.30;99.90;;;;;;5072635;28;20189;-81
2023/03/18 02:02:27;;;;;;;36.20;22.20;;;3.20;99.90;;;;;;5073841;28;20255;-74
2023/03/18 02:04:55;;;;;;;32.88;21.80;;;3.20;99.90;;;;;;5073821;28;20274;-74
2023/03/18 02:07:25;;;;;;;30.88;21.98;;;3.10;99.90;;;;;;5073897;28;20293;-80
2023/03/18 02:09:51;;;;;;;32.63;22.50;;;3.10;99.90;;;;;;5072648;28;20187;-80
2023/03/18 02:12:24;;;;;;;31.80;22.42;;;3.20;99.90;;;;;;5073798;28;20197;-80
2023/03/18 02:14:52;;;;;;;36.58;24.40;;;3.30;99.90;;;;;;5072223;28;20701;-80
2023/03/18 02:17:23;;;;;;;38.05;23.63;;;3.30;99.90;;;;;;5073829;28;20197;-81
2023/03/18 02:20:26;;;;;;;35.50;22.13;;;3.30;99.90;;;;;;5073631;28;20239;-81
2023/03/18 02:22:57;;;;;;;34.05;22.25;;;3.10;99.90;;;;;;5072350;28;20728;-80
2023/03/18 02:25:50;;;;;;;32.92;22.50;;;3.10;99.90;;;;;;5072482;28;20179;-74
2023/03/18 02:28:24;;;;;;;37.33;24.73;;;3.20;99.90;;;;;;5072269;28;20205;-74
2023/03/18 02:30:57;;;;;;;34.80;22.00;;;3.20;99.90;;;;;;5073814;28;20637;-80
2023/03/18 02:33:28;;;;;;;30.70;21.42;;;3.20;99.90;;;;;;5073552;28;20201;-75
2023/03/18 02:36:02;;;;;;;37.47;23.17;;;3.10;99.90;;;;;;5073606;28;20578;-75
2023/03/18 02:38:28;;;;;;;32.10;20.88;;;3.20;99.90;;;;;;5073465;28;20262;-78
2023/03/18 02:40:53;;;;;;;35.37;23.73;;;3.10;99.90;;;;;;5073735;28;20173;-75
2023/03/18 02:43:22;;;;;;;34.73;22.93;;;3.10;99.90;;;;;;5073433;28;20836;-81
2023/03/18 02:45:56;;;;;;;35.45;24.35;;;3.10;99.90;;;;;;5072215;28;20590;-82
2023/03/18 02:48:26;;;;;;;33.25;22.48;;;3.10;99.90;;;;;;5072088;28;20200;-77
2023/03/18 02:50:54;;;;;;;29.45;21.92;;;3.00;99.90;;;;;;5073671;28;20264;-77
2023/03/18 02:53:19;;;;;;;36.75;22.05;;;3.00;99.90;;;;;;5076072;28;20238;-83
2023/03/18 02:55:45;;;;;;;31.60;20.80;;;3.00;99.90;;;;;;5077421;28;20209;-77
2023/03/18 02:58:11;;;;;;;31.08;21.48;;;3.00;99.90;;;;;;5075953;28;20208;-83
2023/03/18 03:00:37;;;;;;;36.92;23.58;;;3.10;99.90;;;;;;5077403;28;20173;-74
2023/03/18 03:03:04;;;;;;;34.10;22.27;;;3.10;99.90;;;;;;5077252;28;20199;-83
2023/03/18 03:05:32;;;;;;;32.22;22.35;;;3.00;99.90;;;;;;5075912;28;21036;-83
2023/03/18 03:07:58;;;;;;;32.90;22.35;;;3.00;99.90;;;;;;5075830;28;20296;-83
2023/03/18 03:10:23;;;;;;;33.30;22.00;;;3.10;99.90;;;;;;5075893;28;20272;-77
2023/03/18 03:12:50;;;;;;;36.60;23.10;;;2.90;99.90;;;;;;5076987;28;20279;-81
2023/03/18 03:15:16;;;;;;;39.50;25.10;;;2.90;99.90;;;;;;5076823;28;20240;-81
2023/03/18 03:17:42;;;;;;;44.00;25.90;;;2.90;99.90;;;;;;5076953;28;20309;-81
2023/03/18 03:20:08;;;;;;;39.87;24.10;;;2.90;99.90;;;;;;5076928;28;20422;-80
2023/03/18 03:22:34;;;;;;;32.85;22.67;;;2.90;99.90;;;;;;5076738;28;20426;-80
2023/03/18 03:25:00;;;;;;;42.00;26.23;;;2.80;99.90;;;;;;5076762;28;20256;-75
2023/03/18 03:27:27;;;;;;;42.87;25.40;;;2.70;99.90;;;;;;5076680;28;20276;-80
2023/03/18 03:29:52;;;;;;;39.35;24.05;;;2.60;99.90;;;;;;5076628;28;20414;-78
2023/03/18 03:32:18;;;;;;;42.83;25.03;;;2.60;99.90;;;;;;5076598;28;20197;-81
2023/03/18 03:34:44;;;;;;;38.50;23.80;;;2.60;99.90;;;;;;5075216;28;20439;-76
2023/03/18 03:37:10;;;;;;;40.57;25.23;;;2.50;99.90;;;;;;5076392;28;20193;-81
2023/03/18 03:39:35;;;;;;;30.57;23.07;;;2.40;99.90;;;;;;5076515;28;20188;-74
2023/03/18 03:42:01;;;;;;;34.43;23.07;;;2.40;99.90;;;;;;5076899;28;20193;-80
2023/03/18 03:44:27;;;;;;;40.87;25.17;;;2.40;99.90;;;;;;5075240;28;20186;-81
2023/03/18 03:46:52;;;;;;;36.83;23.60;;;2.30;99.90;;;;;;5076681;28;20211;-74
2023/03/18 03:49:18;;;;;;;33.17;22.00;;;2.40;99.90;;;;;;5075451;28;20177;-76
2023/03/18 03:51:45;;;;;;;35.33;23.00;;;2.50;99.90;;;;;;5076165;28;20197;-74
2023/03/18 03:54:12;;;;;;;37.47;24.33;;;2.50;99.90;;;;;;5076209;28;20484;-74
2023/03/18 03:56:38;;;;;;;46.67;29.35;;;2.60;99.90;;;;;;5074678;28;20177;-80
2023/03/18 03:59:04;;;;;;;41.38;26.33;;;2.60;99.90;;;;;;5074953;28;20701;-81
2023/03/18 04:01:31;;;;;;;38.13;22.93;;;2.70;99.90;;;;;;5076509;28;20215;-74
2023/03/18 04:03:57;;;;;;;39.15;23.70;;;2.60;99.90;;;;;;5073882;28;20185;-80
2023/03/18 04:06:22;;;;;;;37.73;24.33;;;2.60;99.90;;;;;;5076510;28;20646;-81
2023/03/18 04:08:48;;;;;;;33.90;22.87;;;2.50;99.90;;;;;;5075961;28;20197;-74
2023/03/18 04:11:14;;;;;;;40.90;23.17;;;2.60;99.90;;;;;;5076091;28;20173;-74
2023/03/18 04:13:40;;;;;;;39.83;25.93;;;2.50;99.90;;;;;;5075774;28;21034;-74
2023/03/18 04:16:06;;;;;;;38.08;24.77;;;2.40;99.90;;;;;;5074611;28;20553;-81
2023/03/18 04:18:32;;;;;;;34.25;23.65;;;2.50;99.90;;;;;;5074464;28;20205;-75
2023/03/18 04:20:58;;;;;;;41.85;25.52;;;2.50;99.90;;;;;;5076067;28;20703;-75
2023/03/18 04:23:24;;;;;;;39.90;25.47;;;2.60;99.90;;;;;;5075766;28;20193;-74
2023/03/18 04:25:50;;;;;;;42.88;24.95;;;2.50;99.90;;;;;;5074472;28;20181;-81
2023/03/18 04:28:15;;;;;;;43.57;25.73;;;2.50;99.90;;;;;;5075691;28;20227;-74
2023/03/18 04:30:41;;;;;;;47.73;26.03;;;2.50;99.90;;;;;;5075644;28;20230;-81
2023/03/18 04:33:07;;;;;;;44.30;26.27;;;2.40;99.90;;;;;;5075467;28;20266;-81
2023/03/18 04:35:33;;;;;;;35.87;22.50;;;2.50;99.90;;;;;;5075605;28;20217;-78
2023/03/18 04:37:59;;;;;;;40.47;25.50;;;2.40;99.90;;;;;;5075580;28;20709;-74
2023/03/18 04:40:25;;;;;;;41.00;25.05;;;2.30;99.90;;;;;;5074153;28;20418;-81
2023/03/18 04:42:50;;;;;;;37.47;24.70;;;2.10;99.90;;;;;;5073981;28;20542;-74
2023/03/18 04:45:16;;;;;;;34.70;22.40;;;2.10;99.90;;;;;;5073925;28;20181;-74
2023/03/18 04:47:43;;;;;;;81.40;36.27;;;2.20;99.90;;;;;;5075169;28;20768;-81
2023/03/18 04:50:11;;;;;;;69.28;33.13;;;2.20;99.90;;;;;;5073970;28;20402;-74
2023/03/18 04:52:38;;;;;;;51.85;28.92;;;2.30;99.90;;;;;;5075080;28;20200;-74
2023/03/18 04:55:06;;;;;;;73.63;35.80;;;2.30;99.90;;;;;;5074952;28;20207;-74
2023/03/18 04:57:34;;;;;;;51.47;29.25;;;2.30;99.90;;;;;;5074972;28;20201;-82
2023/03/18 05:00:00;;;;;;;40.13;25.33;;;2.30;99.90;;;;;;5075011;28;20165;-81
2023/03/18 05:02:26;;;;;;;41.15;24.05;;;2.30;99.90;;;;;;5074993;28;20189;-81
2023/03/18 05:04:52;;;;;;;38.67;25.13;;;2.20;99.90;;;;;;5074849;28;20583;-80
2023/03/18 05:07:18;;;;;;;47.73;26.60;;;2.20;99.90;;;;;;5074747;28;20492;-74
2023/03/18 05:09:44;;;;;;;51.87;30.30;;;2.20;99.90;;;;;;5074778;28;20180;-74
2023/03/18 05:12:13;;;;;;;45.60;27.77;;;2.20;99.90;;;;;;5075204;28;20242;-74
2023/03/18 05:14:40;;;;;;;44.97;28.15;;;2.30;99.90;;;;;;5073009;28;20492;-81
2023/03/18 05:17:06;;;;;;;55.97;34.65;;;2.20;99.90;;;;;;5074512;28;20280;-74
2023/03/18 05:19:32;;;;;;;88.18;40.83;;;2.40;99.90;;;;;;5074580;28;20177;-74
2023/03/18 05:21:58;;;;;;;112.57;46.53;;;2.40;99.90;;;;;;5075034;28;20247;-81
2023/03/18 05:24:23;;;;;;;108.03;43.63;;;2.50;99.90;;;;;;5073241;28;20173;-80
2023/03/18 05:26:49;;;;;;;117.77;46.17;;;2.60;99.90;;;;;;5074790;28;20237;-74
2023/03/18 05:29:15;;;;;;;90.83;40.90;;;2.70;99.90;;;;;;5074477;28;20170;-76
2023/03/18 05:31:41;;;;;;;70.63;38.63;;;2.70;99.90;;;;;;5074303;28;20307;-74
2023/03/18 05:34:07;;;;;;;119.95;49.63;;;2.80;99.90;;;;;;5074358;28;21044;-75
2023/03/18 05:36:33;;;;;;;96.75;41.85;;;2.80;99.90;;;;;;5073094;28;20182;-81
2023/03/18 05:38:59;;;;;;;63.70;32.77;;;2.90;99.90;;;;;;5073253;28;20207;-77
2023/03/18 05:41:25;;;;;;;45.30;27.07;;;3.00;99.90;;;;;;5074506;28;20813;-74
2023/03/18 05:43:50;;;;;;;44.47;29.87;;;3.20;99.90;;;;;;5072869;28;20200;-74
2023/03/18 05:46:16;;;;;;;49.13;26.87;;;3.40;99.90;;;;;;5073401;28;20234;-81
2023/03/18 05:48:42;;;;;;;45.78;29.45;;;3.40;99.90;;;;;;5074076;28;20532;-81
2023/03/18 05:51:08;;;;;;;40.93;25.73;;;3.50;99.90;;;;;;5072795;28;20272;-80
2023/03/18 05:53:34;;;;;;;45.37;27.43;;;3.50;99.90;;;;;;5073992;28;20235;-74
2023/03/18 05:56:00;;;;;;;54.50;31.23;;;3.60;99.90;;;;;;5074097;28;20213;-74
2023/03/18 05:58:29;;;;;;;45.80;29.43;;;3.60;99.90;;;;;;5073944;28;20192;-74
2023/03/18 06:00:57;;;;;;;49.42;28.08;;;3.70;99.90;;;;;;5074213;28;20418;-81
2023/03/18 06:03:23;;;;;;;46.10;28.70;;;3.80;99.90;;;;;;5073919;28;20296;-81
2023/03/18 06:05:49;;;;;;;48.30;29.55;;;3.80;99.90;;;;;;5074060;28;20174;-81
2023/03/18 06:08:16;;;;;;;45.33;28.10;;;3.90;99.90;;;;;;5073758;28;20243;-74
2023/03/18 06:10:42;;;;;;;47.90;31.48;;;4.00;99.90;;;;;;5073798;28;20545;-80
2023/03/18 06:13:10;;;;;;;42.00;28.20;;;4.10;99.90;;;;;;5073953;28;20200;-75
2023/03/18 06:15:36;;;;;;;46.17;28.38;;;4.20;99.90;;;;;;5072163;28;20693;-74
2023/03/18 06:18:03;;;;;;;44.55;26.98;;;4.40;99.90;;;;;;5072372;28;20197;-80
2023/03/18 06:20:29;;;;;;;42.08;26.38;;;4.50;99.90;;;;;;5072457;28;20205;-81
2023/03/18 06:22:55;;;;;;;46.38;29.35;;;4.50;99.90;;;;;;5073682;28;20197;-74
2023/03/18 06:25:22;;;;;;;44.40;27.23;;;4.60;99.90;;;;;;5073696;28;20179;-74
2023/03/18 06:27:49;;;;;;;42.85;28.70;;;4.70;99.90;;;;;;5073171;28;20204;-80
2023/03/18 06:30:16;;;;;;;45.83;28.25;;;4.80;99.90;;;;;;5072298;28;20185;-80
2023/03/18 06:32:42;;;;;;;41.35;27.85;;;4.90;99.90;;;;;;5073534;28;20614;-74
2023/03/18 06:35:09;;;;;;;41.85;28.17;;;5.10;99.90;;;;;;5072215;28;20262;-80
2023/03/18 06:37:35;;;;;;;43.50;27.85;;;5.20;99.90;;;;;;5072173;28;20721;-77
2023/03/18 06:40:02;;;;;;;45.65;28.85;;;5.20;99.90;;;;;;5072133;28;20203;-83
2023/03/18 06:42:28;;;;;;;38.08;25.83;;;5.30;99.90;;;;;;5072178;28;20201;-80
2023/03/18 06:44:53;;;;;;;36.07;25.60;;;5.50;99.90;;;;;;5073368;28;20535;-80
2023/03/18 06:47:21;;;;;;;40.43;27.10;;;5.60;99.90;;;;;;5072169;28;20201;-74
2023/03/18 06:49:47;;;;;;;36.13;25.65;;;5.80;99.90;;;;;;5073499;28;20169;-75
2023/03/18 06:52:13;;;;;;;37.92;26.33;;;6.00;99.90;;;;;;5072056;28;20209;-74
2023/03/18 06:54:39;;;;;;;37.60;25.80;;;6.10;99.90;;;;;;5073310;28;20216;-81
2023/03/18 06:57:06;;;;;;;34.88;23.50;;;6.10;99.90;;;;;;5072149;28;20204;-80
2023/03/18 06:59:32;;;;;;;35.45;23.63;;;6.20;99.90;;;;;;5073285;28;20187;-80
2023/03/18 07:01:58;;;;;;;33.40;24.03;;;6.30;99.90;;;;;;5072261;28;20205;-81
2023/03/18 07:04:24;;;;;;;26.30;19.05;;;6.30;99.90;;;;;;5073327;28;20766;-79
2023/03/18 07:06:51;;;;;;;31.20;22.38;;;6.30;99.90;;;;;;5073717;28;20597;-81
2023/03/18 07:09:18;;;;;;;29.67;20.40;;;6.50;99.90;;;;;;5073323;28;20634;-80
2023/03/18 07:11:47;;;;;;;25.92;19.25;;;6.60;99.90;;;;;;5073555;28;20178;-80
2023/03/18 07:14:15;;;;;;;28.05;19.13;;;6.70;99.90;;;;;;5071801;28;20307;-75
2023/03/18 07:16:41;;;;;;;26.85;19.65;;;6.80;99.90;;;;;;5073548;28;20249;-81
2023/03/18 07:19:08;;;;;;;28.43;19.10;;;6.90;99.90;;;;;;5071931;28;20177;-79
2023/03/18 07:21:34;;;;;;;23.95;19.55;;;7.10;99.90;;;;;;5071954;28;20200;-80
2023/03/18 07:24:00;;;;;;;31.02;19.23;;;7.30;99.90;;;;;;5073117;28;20157;-75
2023/03/18 07:26:26;;;;;;;28.23;20.63;;;7.40;99.90;;;;;;5073389;28;20181;-81
2023/03/18 07:28:52;;;;;;;28.23;19.65;;;7.60;99.90;;;;;;5072977;28;20422;-81
2023/03/18 07:31:18;;;;;;;28.47;19.03;;;7.70;99.90;;;;;;5071933;28;20362;-80
2023/03/18 07:33:43;;;;;;;27.23;19.20;;;7.80;99.90;;;;;;5072921;28;20200;-75
2023/03/18 07:36:09;;;;;;;26.90;19.17;;;7.80;99.90;;;;;;5073390;28;20174;-75
2023/03/18 07:38:35;;;;;;;24.03;18.50;;;8.00;99.90;;;;;;5074156;28;20201;-75
2023/03/18 07:41:00;;;;;;;23.00;18.17;;;8.20;99.90;;;;;;5075420;28;20185;-80
2023/03/18 07:43:26;;;;;;;26.77;18.83;;;8.30;99.90;;;;;;5075088;28;20236;-80
2023/03/18 07:45:52;;;;;;;22.45;17.10;;;8.40;99.90;;;;;;5076667;28;20623;-80
2023/03/18 07:48:18;;;;;;;20.47;15.27;;;8.60;99.90;;;;;;5075136;28;20207;-80
2023/03/18 07:50:44;;;;;;;17.20;14.60;;;8.90;99.90;;;;;;5076601;28;20579;-75
2023/03/18 07:53:11;;;;;;;20.23;15.70;;;9.10;99.90;;;;;;5076302;28;20281;-75
2023/03/18 07:55:37;;;;;;;18.35;13.52;;;9.10;99.90;;;;;;5076505;28;20205;-75
2023/03/18 07:58:03;;;;;;;19.50;14.07;;;9.30;99.90;;;;;;5075002;28;20208;-75
2023/03/18 08:00:30;;;;;;;19.17;14.35;;;9.50;99.90;;;;;;5075271;28;20445;-80
2023/03/18 08:02:55;;;;;;;19.92;14.95;;;9.70;99.90;;;;;;5076076;28;20189;-75
2023/03/18 08:05:21;;;;;;;16.37;13.27;;;9.90;99.90;;;;;;5076195;28;20184;-75
2023/03/18 08:07:47;;;;;;;17.13;13.00;;;10.00;99.90;;;;;;5076015;28;20195;-75
2023/03/18 08:10:14;;;;;;;19.38;12.82;;;10.10;99.90;;;;;;5076114;28;20586;-75
2023/03/18 08:12:41;;;;;;;17.02;13.25;;;10.10;99.90;;;;;;5074598;28;20250;-75
2023/03/18 08:15:08;;;;;;;17.10;12.48;;;10.30;99.90;;;;;;5075868;28;20224;-75
2023/03/18 08:17:34;;;;;;;19.60;14.43;;;10.50;99.90;;;;;;5074456;28;20205;-80
2023/03/18 08:19:59;;;;;;;18.00;12.93;;;10.80;99.90;;;;;;5075811;28;20177;-76
2023/03/18 08:22:25;;;;;;;14.63;11.57;;;11.30;99.90;;;;;;5075816;28;20224;-76
2023/03/18 08:24:51;;;;;;;14.10;10.60;;;12.20;99.90;;;;;;5075513;28;20173;-76
2023/03/18 08:27:17;;;;;;;13.30;10.73;;;13.30;99.90;;;;;;5075665;28;20468;-80
2023/03/18 08:29:43;;;;;;;11.10;9.20;;;14.50;99.90;;;;;;5075659;28;20185;-80
2023/03/18 08:32:09;;;;;;;10.47;9.20;;;15.70;99.90;;;;;;5075989;28;20441;-76
2023/03/18 08:34:35;;;;;;;9.30;7.60;;;16.90;96.60;;;;;;5075468;28;20978;-76
2023/03/18 08:37:01;;;;;;;10.07;7.50;;;18.10;93.30;;;;;;5075920;28;20923;-82
2023/03/18 08:39:27;;;;;;;9.27;8.27;;;18.90;90.40;;;;;;5075453;28;20456;-81
2023/03/18 08:41:53;;;;;;;8.93;7.73;;;19.60;88.00;;;;;;5073458;28;20438;-80
2023/03/18 08:44:19;;;;;;;11.30;7.80;;;20.20;87.80;;;;;;5052790;28;20293;-80
2023/03/18 08:46:45;;;;;;;9.27;7.80;;;20.70;83.30;;;;;;5054611;28;20859;-82
2023/03/18 08:49:12;;;;;;;9.40;8.40;;;21.00;79.50;;;;;;5054588;28;20220;-80
2023/03/18 08:51:38;;;;;;;9.70;8.70;;;21.00;78.60;;;;;;5054110;28;20247;-80
2023/03/18 08:54:05;;;;;;;8.43;7.47;;;21.40;79.10;;;;;;5053848;28;20881;-77
2023/03/18 08:56:30;;;;;;;8.77;6.90;;;22.30;76.30;;;;;;5055054;28;20429;-81
2023/03/18 08:58:56;;;;;;;10.20;9.10;;;23.10;74.00;;;;;;5069874;28;20439;-80
2023/03/18 09:01:22;;;;;;;9.67;8.67;;;23.50;71.50;;;;;;5068267;28;20174;-77
2023/03/18 09:03:49;;;;;;;9.87;8.20;;;23.20;71.30;;;;;;5051416;28;20209;-77
2023/03/18 09:06:15;;;;;;;12.40;9.73;;;23.20;71.70;;;;;;5068220;28;20407;-80
2023/03/18 09:08:41;;;;;;;10.10;9.10;;;23.40;71.00;;;;;;5052759;28;20434;-77
2023/03/18 09:11:08;;;;;;;11.53;10.20;;;23.60;71.50;;;;;;5052951;28;20849;-81
2023/03/18 09:13:35;;;;;;;11.03;9.40;;;23.70;70.80;;;;;;5052643;28;20271;-77
2023/03/18 09:16:00;;;;;;;12.10;10.87;;;23.40;69.70;;;;;;5053275;28;20498;-81
2023/03/18 09:18:27;;;;;;;10.30;9.10;;;22.70;71.40;;;;;;5054683;28;20427;-77
2023/03/18 09:20:52;;;;;;;10.43;9.37;;;22.20;71.50;;;;;;5054930;28;20181;-81
2023/03/18 09:23:18;;;;;;;12.77;10.03;;;21.90;73.00;;;;;;5054723;28;20435;-77
2023/03/18 09:25:49;;;;;;;10.67;9.50;;;21.50;72.80;;;;;;5053330;28;20213;-77
2023/03/18 09:28:15;;;;;;;10.33;9.23;;;21.10;73.20;;;;;;5054512;28;20430;-77
2023/03/18 09:30:41;;;;;;;12.77;10.50;;;20.70;74.30;;;;;;5053306;28;20434;-82
2023/03/18 09:33:09;;;;;;;11.40;10.30;;;20.40;74.60;;;;;;5053199;28;20529;-82
2023/03/18 09:35:35;;;;;;;11.87;10.57;;;20.00;75.00;;;;;;5054530;28;20560;-82
2023/03/18 09:38:02;;;;;;;13.30;11.23;;;19.70;75.10;;;;;;5054283;28;20499;-81
2023/03/18 09:40:32;;;;;;;11.33;10.20;;;19.80;75.80;;;;;;5053047;28;20422;-80
2023/03/18 09:43:17;;;;;;;15.00;12.23;;;20.00;76.00;;;;;;5054189;28;20480;-77
2023/03/18 09:45:53;;;;;;;13.27;11.90;;;19.90;75.40;;;;;;5053050;28;20473;-77
2023/03/18 09:48:40;;;;;;;13.33;11.47;;;19.70;76.20;;;;;;5052822;28;20458;-81
2023/03/18 09:51:18;;;;;;;11.60;10.40;;;19.70;75.60;;;;;;5052983;28;20492;-77
2023/03/18 09:54:13;;;;;;;10.03;9.03;;;19.00;75.10;;;;;;5053972;28;20521;-76
2023/03/18 09:56:39;;;;;;;11.80;9.33;;;19.20;76.10;;;;;;5052796;28;20583;-80
2023/03/18 09:59:28;;;;;;;11.53;10.33;;;19.80;76.50;;;;;;5069432;28;20493;-77
2023/03/18 10:01:56;;;;;;;16.33;11.90;;;20.10;74.90;;;;;;5053686;28;20448;-81
2023/03/18 10:04:23;;;;;;;11.87;10.67;;;20.00;74.50;;;;;;5052611;28;20419;-76
2023/03/18 10:06:56;;;;;;;16.40;10.73;;;19.90;74.90;;;;;;5054216;28;20778;-77
2023/03/18 10:09:27;;;;;;;11.77;10.53;;;19.70;74.40;;;;;;5052600;28;20764;-76
2023/03/18 10:12:03;;;;;;;11.30;9.80;;;19.20;75.90;;;;;;5052691;28;20489;-76
2023/03/18 10:14:41;;;;;;;10.37;9.37;;;18.40;73.90;;;;;;5053634;28;20795;-75
2023/03/18 10:17:18;;;;;;;11.03;9.93;;;17.90;77.10;;;;;;5052647;28;20954;-82
2023/03/18 10:19:57;;;;;;;10.93;9.20;;;17.70;76.70;;;;;;5053667;28;20400;-80
2023/03/18 10:23:00;;;;;;;9.77;8.70;;;17.60;76.90;;;;;;5053662;28;20461;-81
2023/03/18 10:25:26;;;;;;;9.67;8.10;;;17.60;77.10;;;;;;5053756;28;20421;-81
2023/03/18 10:28:28;;;;;;;9.63;8.50;;;17.50;77.40;;;;;;5053389;28;20808;-81
2023/03/18 10:31:13;;;;;;;10.50;8.50;;;16.80;77.50;;;;;;5052342;28;20237;-76
2023/03/18 10:34:00;;;;;;;9.10;8.13;;;16.40;77.80;;;;;;5052276;28;20462;-81
2023/03/18 10:36:25;;;;;;;8.70;7.80;;;16.20;78.50;;;;;;5052370;28;20431;-82
2023/03/18 10:38:53;;;;;;;8.53;7.63;;;16.30;80.20;;;;;;5053459;28;20768;-82
2023/03/18 10:41:29;;;;;;;9.40;8.50;;;16.30;79.50;;;;;;5052414;28;20694;-77
2023/03/18 10:43:56;;;;;;;12.50;9.03;;;16.30;79.30;;;;;;5053331;28;20434;-82
2023/03/18 10:46:24;;;;;;;10.30;8.60;;;16.20;79.90;;;;;;5052353;28;20513;-81
2023/03/18 10:49:19;;;;;;;9.93;9.00;;;16.10;80.30;;;;;;5053415;28;20959;-77
2023/03/18 10:52:20;;;;;;;10.77;8.50;;;15.80;79.50;;;;;;5051192;28;20427;-81
2023/03/18 10:54:51;;;;;;;10.30;9.30;;;15.60;80.00;;;;;;5052038;28;21018;-82
2023/03/18 10:57:18;;;;;;;13.30;9.87;;;15.30;81.50;;;;;;5053386;28;20427;-81
2023/03/18 10:59:44;;;;;;;10.13;8.13;;;15.40;83.70;;;;;;5053320;28;20912;-77
2023/03/18 11:02:35;;;;;;;11.00;8.20;;;15.50;82.50;;;;;;5052159;28;20454;-77
2023/03/18 11:05:21;;;;;;;11.37;10.27;;;15.50;81.60;;;;;;5051996;28;20483;-82
2023/03/18 11:08:05;;;;;;;9.57;8.67;;;15.50;81.10;;;;;;5053245;28;20965;-82
2023/03/18 11:10:39;;;;;;;8.80;7.90;;;15.40;80.30;;;;;;5053413;28;20418;-82
2023/03/18 11:13:05;;;;;;;8.33;7.53;;;15.30;81.70;;;;;;5055385;28;20981;-81
2023/03/18 11:15:42;;;;;;;8.30;7.60;;;15.40;82.60;;;;;;5055624;28;20536;-77
2023/03/18 11:18:21;;;;;;;8.17;7.37;;;15.30;81.90;;;;;;5057338;28;20588;-77
2023/03/18 11:21:11;;;;;;;14.10;7.97;;;15.40;81.90;;;;;;5057234;28;20421;-76
2023/03/18 11:26:27;;;;;;;9.27;7.90;;;15.50;81.80;;;;;;5057147;28;20839;-77
2023/03/18 11:28:57;;;;;;;10.67;8.90;;;15.70;82.00;;;;;;5056711;28;20430;-81
2023/03/18 11:31:23;;;;;;;10.00;9.00;;;15.80;82.10;;;;;;5057173;28;20916;-80
2023/03/18 11:33:49;;;;;;;9.37;8.30;;;15.80;83.20;;;;;;5056691;28;20514;-80
2023/03/18 11:36:22;;;;;;;8.53;7.77;;;15.90;85.10;;;;;;5055399;28;20485;-77
2023/03/18 11:39:18;;;;;;;9.97;8.97;;;16.00;82.20;;;;;;5055326;28;20209;-81
2023/03/18 11:41:44;;;;;;;12.43;8.10;;;15.90;82.70;;;;;;5056185;28;20443;-76
2023/03/18 11:44:18;;;;;;;9.33;8.20;;;15.70;83.50;;;;;;5055207;28;20411;-76
2023/03/18 11:46:46;;;;;;;8.10;7.40;;;15.70;83.40;;;;;;5071924;28;20428;-76
2023/03/18 11:49:14;;;;;;;7.80;7.10;;;15.80;84.60;;;;;;5056436;28;20419;-77
2023/03/18 11:52:11;;;;;;;7.50;6.70;;;15.70;82.50;;;;;;5056722;28;20415;-76
2023/03/18 11:54:43;;;;;;;9.33;7.90;;;15.60;82.50;;;;;;5045204;28;20466;-82
2023/03/18 11:57:20;;;;;;;7.53;6.83;;;15.70;82.70;;;;;;5056748;28;20435;-76
2023/03/18 12:00:07;;;;;;;7.53;6.83;;;15.80;82.20;;;;;;5056323;28;20737;-82
2023/03/18 12:03:11;;;;;;;6.60;6.00;;;15.80;82.60;;;;;;5056209;28;20438;-76
2023/03/18 12:05:59;;;;;;;13.13;6.80;;;15.90;83.00;;;;;;5055398;28;20429;-83
2023/03/18 12:08:44;;;;;;;7.20;6.50;;;16.00;82.10;;;;;;5056216;28;20489;-82
2023/03/18 12:11:37;;;;;;;7.47;6.63;;;16.00;80.40;;;;;;5055908;28;20423;-76
2023/03/18 12:14:34;;;;;;;6.10;5.50;;;15.80;81.90;;;;;;5054639;28;20428;-77
2023/03/18 12:17:24;;;;;;;7.07;6.37;;;15.90;82.90;;;;;;5056441;28;20454;-77
2023/03/18 12:20:10;;;;;;;8.17;6.00;;;16.10;81.40;;;;;;5073877;28;20784;-77
2023/03/18 12:22:44;;;;;;;6.47;5.87;;;15.90;80.50;;;;;;5073499;28;20876;-81
2023/03/18 12:25:42;;;;;;;6.63;6.03;;;15.80;81.30;;;;;;5074330;28;20762;-81
2023/03/18 12:28:23;;;;;;;6.20;5.60;;;15.60;82.70;;;;;;5062888;28;20442;-82
2023/03/18 12:30:58;;;;;;;6.20;5.60;;;15.70;83.50;;;;;;5073677;28;20420;-77
2023/03/18 12:33:27;;;;;;;6.27;5.60;;;15.70;82.50;;;;;;5074106;28;20445;-77
2023/03/18 12:36:37;;;;;;;5.90;5.30;;;15.70;82.70;;;;;;5073467;28;20830;-82
2023/03/18 12:39:18;;;;;;;5.83;5.30;;;15.60;82.20;;;;;;5072007;28;20442;-77
2023/03/18 12:42:09;;;;;;;5.40;4.90;;;15.60;81.50;;;;;;5073567;28;20422;-82
2023/03/18 12:44:46;;;;;;;5.67;5.17;;;15.70;81.20;;;;;;5073341;28;20962;-83
2023/03/18 12:47:32;;;;;;;6.00;4.80;;;15.70;82.10;;;;;;5071860;28;20485;-77
2023/03/18 12:50:03;;;;;;;7.17;5.77;;;15.70;80.40;;;;;;5071834;28;20463;-78
2023/03/18 12:52:43;;;;;;;5.80;5.13;;;15.70;81.00;;;;;;5073559;28;20475;-83
2023/03/18 12:55:46;;;;;;;5.80;5.20;;;15.70;80.60;;;;;;5073901;28;20475;-82